sensor_id;sensor_type;location;lat;lon;timestamp;temperature;humidity
6824;DHT22;58633;49.470;11.004;2023-05-10T00:00:00;18.00;57.60
6824;DHT22;58633;49.470;11.004;2023-05-10T00:02:25;18.10;58.00
6824;DHT22;58633;49.470;11.004;2023-05-10T00:07:17;17.80;57.80
6824;DHT22;58633;49.470;11.004;2023-05-10T00:09:43;17.70;58.10
6824;DHT22;58633;49.470;11.004;2023-05-10T00:12:09;18.00;58.40
6824;DHT22;58633;49.470;11.004;2023-05-10T00:17:01;17.90;58.40
6824;DHT22;58633;49.470;11.004;2023-05-10T00:19:26;17.80;59.20
6824;DHT22;58633;49.470;11.004;2023-05-10T00:21:52;17.80;59.70
6824;DHT22;58633;49.470;11.004;2023-05-10T00:24:17;17.60;59.60
6824;DHT22;58633;49.470;11.004;2023-05-10T00:26:43;17.60;60.50
6824;DHT22;58633;49.470;11.004;2023-05-10T00:29:08;17.40;60.70
6824;DHT22;58633;49.470;11.004;2023-05-10T00:31:34;17.50;61.30
6824;DHT22;58633;49.470;11.004;2023-05-10T00:33:59;17.40;61.50
6824;DHT22;58633;49.470;11.004;2023-05-10T00:36:25;17.30;61.90
6824;DHT22;58633;49.470;11.004;2023-05-10T00:38:51;17.30;62.80
6824;DHT22;58633;49.470;11.004;2023-05-10T00:41:16;17.20;62.90
6824;DHT22;58633;49.470;11.004;2023-05-10T00:43:42;17.10;62.70
6824;DHT22;58633;49.470;11.004;2023-05-10T00:46:08;17.00;62.90
6824;DHT22;58633;49.470;11.004;2023-05-10T00:48:34;17.10;63.50
6824;DHT22;58633;49.470;11.004;2023-05-10T00:51:01;17.20;64.30
6824;DHT22;58633;49.470;11.004;2023-05-10T00:53:27;17.00;64.00
6824;DHT22;58633;49.470;11.004;2023-05-10T00:55:52;17.10;64.70
6824;DHT22;58633;49.470;11.004;2023-05-10T00:58:18;17.00;64.50
6824;DHT22;58633;49.470;11.004;2023-05-10T01:00:46;17.00;65.40
6824;DHT22;58633;49.470;11.004;2023-05-10T01:03:12;17.00;65.00
6824;DHT22;58633;49.470;11.004;2023-05-10T01:05:38;17.20;65.20
6824;DHT22;58633;49.470;11.004;2023-05-10T01:08:04;17.00;65.10
6824;DHT22;58633;49.470;11.004;2023-05-10T01:10:30;17.20;66.00
6824;DHT22;58633;49.470;11.004;2023-05-10T01:12:56;16.90;66.30
6824;DHT22;58633;49.470;11.004;2023-05-10T01:15:22;16.90;66.70
6824;DHT22;58633;49.470;11.004;2023-05-10T01:17:49;16.90;66.60
6824;DHT22;58633;49.470;11.004;2023-05-10T01:20:15;16.90;67.40
6824;DHT22;58633;49.470;11.004;2023-05-10T01:23:04;20.10;70.70
6824;DHT22;58633;49.470;11.004;2023-05-10T01:28:39;16.70;67.50
6824;DHT22;58633;49.470;11.004;2023-05-10T01:31:37;16.70;68.30
6824;DHT22;58633;49.470;11.004;2023-05-10T01:34:13;16.70;68.00
6824;DHT22;58633;49.470;11.004;2023-05-10T01:36:48;16.60;67.90
6824;DHT22;58633;49.470;11.004;2023-05-10T01:42:13;17.00;68.50
6824;DHT22;58633;49.470;11.004;2023-05-10T01:47:11;16.60;68.80
6824;DHT22;58633;49.470;11.004;2023-05-10T01:49:45;20.00;73.00
6824;DHT22;58633;49.470;11.004;2023-05-10T01:52:15;16.60;69.20
6824;DHT22;58633;49.470;11.004;2023-05-10T01:54:47;16.70;69.40
6824;DHT22;58633;49.470;11.004;2023-05-10T01:57:15;16.70;69.40
6824;DHT22;58633;49.470;11.004;2023-05-10T01:59:43;16.70;70.00
6824;DHT22;58633;49.470;11.004;2023-05-10T02:02:11;16.60;69.40
6824;DHT22;58633;49.470;11.004;2023-05-10T02:04:39;16.50;70.30
6824;DHT22;58633;49.470;11.004;2023-05-10T02:07:06;16.40;70.40
6824;DHT22;58633;49.470;11.004;2023-05-10T02:09:33;16.50;70.30
6824;DHT22;58633;49.470;11.004;2023-05-10T02:12:01;16.60;70.50
6824;DHT22;58633;49.470;11.004;2023-05-10T02:14:30;16.70;70.80
6824;DHT22;58633;49.470;11.004;2023-05-10T02:16:57;16.60;70.60
6824;DHT22;58633;49.470;11.004;2023-05-10T02:19:23;16.50;70.80
6824;DHT22;58633;49.470;11.004;2023-05-10T02:21:50;16.60;71.50
6824;DHT22;58633;49.470;11.004;2023-05-10T02:24:17;17.60;72.70
6824;DHT22;58633;49.470;11.004;2023-05-10T02:26:45;16.50;71.00
6824;DHT22;58633;49.470;11.004;2023-05-10T02:29:13;16.60;71.30
6824;DHT22;58633;49.470;11.004;2023-05-10T02:31:39;16.60;71.50
6824;DHT22;58633;49.470;11.004;2023-05-10T02:34:06;16.60;71.80
6824;DHT22;58633;49.470;11.004;2023-05-10T02:36:33;16.50;72.10
6824;DHT22;58633;49.470;11.004;2023-05-10T02:39:00;16.50;71.80
6824;DHT22;58633;49.470;11.004;2023-05-10T02:41:27;16.50;72.10
6824;DHT22;58633;49.470;11.004;2023-05-10T02:43:56;16.60;72.10
6824;DHT22;58633;49.470;11.004;2023-05-10T02:46:23;16.10;71.90
6824;DHT22;58633;49.470;11.004;2023-05-10T02:48:49;16.40;73.00
6824;DHT22;58633;49.470;11.004;2023-05-10T02:51:16;16.40;72.80
6824;DHT22;58633;49.470;11.004;2023-05-10T02:53:45;16.20;73.10
6824;DHT22;58633;49.470;11.004;2023-05-10T02:56:15;16.20;73.20
6824;DHT22;58633;49.470;11.004;2023-05-10T02:58:43;16.30;73.80
6824;DHT22;58633;49.470;11.004;2023-05-10T03:01:09;15.90;73.30
6824;DHT22;58633;49.470;11.004;2023-05-10T03:03:35;16.10;74.00
6824;DHT22;58633;49.470;11.004;2023-05-10T03:06:00;16.10;74.80
6824;DHT22;58633;49.470;11.004;2023-05-10T03:08:26;16.00;76.20
6824;DHT22;58633;49.470;11.004;2023-05-10T03:13:44;16.20;77.30
6824;DHT22;58633;49.470;11.004;2023-05-10T03:16:18;16.00;78.30
6824;DHT22;58633;49.470;11.004;2023-05-10T03:18:56;15.60;77.80
6824;DHT22;58633;49.470;11.004;2023-05-10T03:21:28;15.80;81.10
6824;DHT22;58633;49.470;11.004;2023-05-10T03:23:59;15.60;79.50
6824;DHT22;58633;49.470;11.004;2023-05-10T03:26:30;15.80;80.30
6824;DHT22;58633;49.470;11.004;2023-05-10T03:28:57;15.70;82.30
6824;DHT22;58633;49.470;11.004;2023-05-10T03:31:24;15.70;82.00
6824;DHT22;58633;49.470;11.004;2023-05-10T03:33:50;15.30;80.20
6824;DHT22;58633;49.470;11.004;2023-05-10T03:36:17;15.40;81.40
6824;DHT22;58633;49.470;11.004;2023-05-10T03:38:43;15.30;84.40
6824;DHT22;58633;49.470;11.004;2023-05-10T03:41:08;15.30;85.60
6824;DHT22;58633;49.470;11.004;2023-05-10T03:46:04;15.30;89.80
6824;DHT22;58633;49.470;11.004;2023-05-10T03:48:30;15.20;88.70
6824;DHT22;58633;49.470;11.004;2023-05-10T03:50:55;15.30;90.00
6824;DHT22;58633;49.470;11.004;2023-05-10T03:53:21;15.30;88.60
6824;DHT22;58633;49.470;11.004;2023-05-10T03:55:48;15.40;90.40
6824;DHT22;58633;49.470;11.004;2023-05-10T03:58:13;15.40;89.60
6824;DHT22;58633;49.470;11.004;2023-05-10T04:00:39;15.40;90.20
6824;DHT22;58633;49.470;11.004;2023-05-10T04:03:09;15.20;89.50
6824;DHT22;58633;49.470;11.004;2023-05-10T04:05:35;15.80;89.90
6824;DHT22;58633;49.470;11.004;2023-05-10T04:08:01;15.50;88.10
6824;DHT22;58633;49.470;11.004;2023-05-10T04:10:26;15.60;89.60
6824;DHT22;58633;49.470;11.004;2023-05-10T04:12:52;15.90;87.50
6824;DHT22;58633;49.470;11.004;2023-05-10T04:15:17;15.60;86.30
6824;DHT22;58633;49.470;11.004;2023-05-10T04:17:43;15.90;85.30
6824;DHT22;58633;49.470;11.004;2023-05-10T04:20:09;15.60;84.50
6824;DHT22;58633;49.470;11.004;2023-05-10T04:22:34;15.60;84.50
6824;DHT22;58633;49.470;11.004;2023-05-10T04:27:26;15.40;82.70
6824;DHT22;58633;49.470;11.004;2023-05-10T04:29:52;15.30;83.30
6824;DHT22;58633;49.470;11.004;2023-05-10T04:32:17;15.40;83.90
6824;DHT22;58633;49.470;11.004;2023-05-10T04:34:44;15.40;83.30
6824;DHT22;58633;49.470;11.004;2023-05-10T04:37:09;15.60;83.50
6824;DHT22;58633;49.470;11.004;2023-05-10T04:39:35;15.50;83.50
6824;DHT22;58633;49.470;11.004;2023-05-10T04:42:01;15.40;82.00
6824;DHT22;58633;49.470;11.004;2023-05-10T04:44:28;15.30;81.50
6824;DHT22;58633;49.470;11.004;2023-05-10T04:46:54;15.40;82.50
6824;DHT22;58633;49.470;11.004;2023-05-10T04:49:19;15.50;82.00
6824;DHT22;58633;49.470;11.004;2023-05-10T04:51:45;15.00;80.80
6824;DHT22;58633;49.470;11.004;2023-05-10T04:54:10;15.40;80.30
6824;DHT22;58633;49.470;11.004;2023-05-10T04:56:36;15.40;80.40
6824;DHT22;58633;49.470;11.004;2023-05-10T04:59:01;15.60;81.40
6824;DHT22;58633;49.470;11.004;2023-05-10T05:01:27;15.20;80.50
6824;DHT22;58633;49.470;11.004;2023-05-10T05:06:19;15.20;80.20
6824;DHT22;58633;49.470;11.004;2023-05-10T05:08:46;15.60;81.00
6824;DHT22;58633;49.470;11.004;2023-05-10T05:11:11;15.20;79.70
6824;DHT22;58633;49.470;11.004;2023-05-10T05:13:37;15.20;80.20
6824;DHT22;58633;49.470;11.004;2023-05-10T05:16:03;15.10;79.40
6824;DHT22;58633;49.470;11.004;2023-05-10T05:18:28;15.10;79.20
6824;DHT22;58633;49.470;11.004;2023-05-10T05:23:20;15.30;80.50
6824;DHT22;58633;49.470;11.004;2023-05-10T05:25:46;15.30;79.40
6824;DHT22;58633;49.470;11.004;2023-05-10T05:28:12;16.00;78.70
6824;DHT22;58633;49.470;11.004;2023-05-10T05:30:37;15.60;76.90
6824;DHT22;58633;49.470;11.004;2023-05-10T05:33:03;15.60;75.70
6824;DHT22;58633;49.470;11.004;2023-05-10T05:35:29;15.60;75.90
6824;DHT22;58633;49.470;11.004;2023-05-10T05:37:54;15.30;75.70
6824;DHT22;58633;49.470;11.004;2023-05-10T05:40:21;15.50;76.30
6824;DHT22;58633;49.470;11.004;2023-05-10T05:47:39;15.60;76.20
6824;DHT22;58633;49.470;11.004;2023-05-10T05:50:05;15.50;76.00
6824;DHT22;58633;49.470;11.004;2023-05-10T05:52:31;15.70;75.80
6824;DHT22;58633;49.470;11.004;2023-05-10T05:54:57;15.70;75.50
6824;DHT22;58633;49.470;11.004;2023-05-10T05:57:22;15.70;75.70
6824;DHT22;58633;49.470;11.004;2023-05-10T05:59:48;16.10;75.80
6824;DHT22;58633;49.470;11.004;2023-05-10T06:02:13;15.70;75.40
6824;DHT22;58633;49.470;11.004;2023-05-10T06:04:39;15.50;74.60
6824;DHT22;58633;49.470;11.004;2023-05-10T06:07:04;15.60;75.30
6824;DHT22;58633;49.470;11.004;2023-05-10T06:09:30;15.60;75.40
6824;DHT22;58633;49.470;11.004;2023-05-10T06:11:56;15.60;75.90
6824;DHT22;58633;49.470;11.004;2023-05-10T06:14:21;15.70;76.00
6824;DHT22;58633;49.470;11.004;2023-05-10T06:16:47;15.70;75.90
6824;DHT22;58633;49.470;11.004;2023-05-10T06:19:13;15.90;75.70
6824;DHT22;58633;49.470;11.004;2023-05-10T06:21:38;15.70;74.90
6824;DHT22;58633;49.470;11.004;2023-05-10T06:24:05;15.80;75.00
6824;DHT22;58633;49.470;11.004;2023-05-10T06:26:32;16.00;75.10
6824;DHT22;58633;49.470;11.004;2023-05-10T06:31:23;16.00;74.20
6824;DHT22;58633;49.470;11.004;2023-05-10T06:33:49;16.00;74.70
6824;DHT22;58633;49.470;11.004;2023-05-10T06:36:14;16.10;74.70
6824;DHT22;58633;49.470;11.004;2023-05-10T06:38:40;16.20;73.30
6824;DHT22;58633;49.470;11.004;2023-05-10T06:41:05;16.10;73.10
6824;DHT22;58633;49.470;11.004;2023-05-10T06:43:31;16.00;73.00
6824;DHT22;58633;49.470;11.004;2023-05-10T06:48:23;16.20;72.90
6824;DHT22;58633;49.470;11.004;2023-05-10T06:50:48;16.30;72.80
6824;DHT22;58633;49.470;11.004;2023-05-10T06:53:14;16.50;72.10
6824;DHT22;58633;49.470;11.004;2023-05-10T06:55:39;16.50;72.60
6824;DHT22;58633;49.470;11.004;2023-05-10T07:00:31;16.40;71.00
6824;DHT22;58633;49.470;11.004;2023-05-10T07:02:57;16.40;71.50
6824;DHT22;58633;49.470;11.004;2023-05-10T07:07:48;16.50;70.50
6824;DHT22;58633;49.470;11.004;2023-05-10T07:10:14;16.70;70.20
6824;DHT22;58633;49.470;11.004;2023-05-10T07:12:39;16.70;70.00
6824;DHT22;58633;49.470;11.004;2023-05-10T07:15:05;16.60;69.50
6824;DHT22;58633;49.470;11.004;2023-05-10T07:17:31;16.60;69.40
6824;DHT22;58633;49.470;11.004;2023-05-10T07:19:58;16.60;69.80
6824;DHT22;58633;49.470;11.004;2023-05-10T07:22:24;16.80;69.40
6824;DHT22;58633;49.470;11.004;2023-05-10T07:24:50;16.60;68.70
6824;DHT22;58633;49.470;11.004;2023-05-10T07:27:15;16.70;68.90
6824;DHT22;58633;49.470;11.004;2023-05-10T07:29:41;16.70;68.80
6824;DHT22;58633;49.470;11.004;2023-05-10T07:32:06;16.70;68.70
6824;DHT22;58633;49.470;11.004;2023-05-10T07:34:32;16.70;68.80
6824;DHT22;58633;49.470;11.004;2023-05-10T07:37:00;16.40;68.20
6824;DHT22;58633;49.470;11.004;2023-05-10T07:39:27;16.60;68.40
6824;DHT22;58633;49.470;11.004;2023-05-10T07:41:53;16.70;68.60
6824;DHT22;58633;49.470;11.004;2023-05-10T07:44:18;16.40;68.40
6824;DHT22;58633;49.470;11.004;2023-05-10T07:46:45;16.70;69.20
6824;DHT22;58633;49.470;11.004;2023-05-10T07:49:11;16.50;68.10
6824;DHT22;58633;49.470;11.004;2023-05-10T07:51:36;16.60;67.90
6824;DHT22;58633;49.470;11.004;2023-05-10T07:54:02;16.50;68.00
6824;DHT22;58633;49.470;11.004;2023-05-10T07:56:30;16.50;68.30
6824;DHT22;58633;49.470;11.004;2023-05-10T07:59:00;16.70;68.20
6824;DHT22;58633;49.470;11.004;2023-05-10T08:06:19;16.70;67.80
6824;DHT22;58633;49.470;11.004;2023-05-10T08:08:46;16.60;67.50
6824;DHT22;58633;49.470;11.004;2023-05-10T08:11:15;16.50;67.60
6824;DHT22;58633;49.470;11.004;2023-05-10T08:13:41;16.70;68.30
6824;DHT22;58633;49.470;11.004;2023-05-10T08:16:06;16.70;68.20
6824;DHT22;58633;49.470;11.004;2023-05-10T08:18:32;16.90;67.90
6824;DHT22;58633;49.470;11.004;2023-05-10T08:20:58;17.00;67.50
6824;DHT22;58633;49.470;11.004;2023-05-10T08:28:15;17.10;66.60
6824;DHT22;58633;49.470;11.004;2023-05-10T08:30:41;17.20;66.40
6824;DHT22;58633;49.470;11.004;2023-05-10T08:33:06;17.30;66.20
6824;DHT22;58633;49.470;11.004;2023-05-10T08:35:32;17.30;65.90
6824;DHT22;58633;49.470;11.004;2023-05-10T08:37:58;17.20;65.70
6824;DHT22;58633;49.470;11.004;2023-05-10T08:40:24;17.50;66.00
6824;DHT22;58633;49.470;11.004;2023-05-10T08:42:55;17.50;65.80
6824;DHT22;58633;49.470;11.004;2023-05-10T08:45:23;17.60;65.50
6824;DHT22;58633;49.470;11.004;2023-05-10T08:47:49;17.70;65.50
6824;DHT22;58633;49.470;11.004;2023-05-10T08:50:16;17.60;65.90
6824;DHT22;58633;49.470;11.004;2023-05-10T08:52:42;17.50;65.20
6824;DHT22;58633;49.470;11.004;2023-05-10T08:55:10;17.50;65.40
6824;DHT22;58633;49.470;11.004;2023-05-10T08:57:36;17.30;65.70
6824;DHT22;58633;49.470;11.004;2023-05-10T09:00:02;17.30;65.90
6824;DHT22;58633;49.470;11.004;2023-05-10T09:02:28;16.60;66.60
6824;DHT22;58633;49.470;11.004;2023-05-10T09:04:53;16.40;67.70
6824;DHT22;58633;49.470;11.004;2023-05-10T09:07:20;16.20;68.30
6824;DHT22;58633;49.470;11.004;2023-05-10T09:09:46;16.20;68.50
6824;DHT22;58633;49.470;11.004;2023-05-10T09:12:12;16.50;68.70
6824;DHT22;58633;49.470;11.004;2023-05-10T09:14:38;16.60;68.50
6824;DHT22;58633;49.470;11.004;2023-05-10T09:17:04;16.70;68.50
6824;DHT22;58633;49.470;11.004;2023-05-10T09:21:56;17.00;68.10
6824;DHT22;58633;49.470;11.004;2023-05-10T09:24:25;16.90;67.40
6824;DHT22;58633;49.470;11.004;2023-05-10T09:26:52;17.10;67.90
6824;DHT22;58633;49.470;11.004;2023-05-10T09:29:18;17.00;67.70
6824;DHT22;58633;49.470;11.004;2023-05-10T09:31:48;17.10;67.90
6824;DHT22;58633;49.470;11.004;2023-05-10T09:34:21;17.40;67.70
6824;DHT22;58633;49.470;11.004;2023-05-10T09:36:55;17.60;67.60
6824;DHT22;58633;49.470;11.004;2023-05-10T09:39:36;17.30;67.70
6824;DHT22;58633;49.470;11.004;2023-05-10T09:42:12;17.60;67.70
6824;DHT22;58633;49.470;11.004;2023-05-10T09:44:38;17.80;66.90
6824;DHT22;58633;49.470;11.004;2023-05-10T09:47:03;17.80;67.40
6824;DHT22;58633;49.470;11.004;2023-05-10T09:49:29;18.00;65.70
6824;DHT22;58633;49.470;11.004;2023-05-10T09:52:06;18.40;65.90
6824;DHT22;58633;49.470;11.004;2023-05-10T09:54:33;18.80;64.90
6824;DHT22;58633;49.470;11.004;2023-05-10T09:56:59;18.70;63.30
6824;DHT22;58633;49.470;11.004;2023-05-10T09:59:26;18.70;62.50
6824;DHT22;58633;49.470;11.004;2023-05-10T10:01:53;18.80;63.00
6824;DHT22;58633;49.470;11.004;2023-05-10T10:04:21;18.60;62.60
6824;DHT22;58633;49.470;11.004;2023-05-10T10:06:46;18.70;62.00
6824;DHT22;58633;49.470;11.004;2023-05-10T10:09:23;18.80;62.50
6824;DHT22;58633;49.470;11.004;2023-05-10T10:11:49;19.10;60.70
6824;DHT22;58633;49.470;11.004;2023-05-10T10:14:18;19.10;61.10
6824;DHT22;58633;49.470;11.004;2023-05-10T10:16:44;19.00;60.50
6824;DHT22;58633;49.470;11.004;2023-05-10T10:19:10;19.10;60.10
6824;DHT22;58633;49.470;11.004;2023-05-10T10:21:35;19.50;59.40
6824;DHT22;58633;49.470;11.004;2023-05-10T10:24:01;19.80;58.70
6824;DHT22;58633;49.470;11.004;2023-05-10T10:26:27;19.80;57.30
6824;DHT22;58633;49.470;11.004;2023-05-10T10:29:32;19.90;57.80
6824;DHT22;58633;49.470;11.004;2023-05-10T10:34:34;19.50;58.20
6824;DHT22;58633;49.470;11.004;2023-05-10T10:37:04;19.10;57.90
6824;DHT22;58633;49.470;11.004;2023-05-10T10:39:31;19.00;57.80
6824;DHT22;58633;49.470;11.004;2023-05-10T10:41:57;19.10;57.60
6824;DHT22;58633;49.470;11.004;2023-05-10T10:52:33;19.00;58.20
6824;DHT22;58633;49.470;11.004;2023-05-10T10:57:54;18.70;58.00
6824;DHT22;58633;49.470;11.004;2023-05-10T11:00:38;18.70;58.40
6824;DHT22;58633;49.470;11.004;2023-05-10T11:03:09;18.60;58.30
6824;DHT22;58633;49.470;11.004;2023-05-10T11:08:26;18.70;58.70
6824;DHT22;58633;49.470;11.004;2023-05-10T11:13:47;19.10;58.40
6824;DHT22;58633;49.470;11.004;2023-05-10T11:16:19;19.40;58.20
6824;DHT22;58633;49.470;11.004;2023-05-10T11:19:08;19.40;57.90
6824;DHT22;58633;49.470;11.004;2023-05-10T11:21:50;19.80;58.20
6824;DHT22;58633;49.470;11.004;2023-05-10T11:24:25;19.50;57.60
6824;DHT22;58633;49.470;11.004;2023-05-10T11:26:53;19.40;57.40
6824;DHT22;58633;49.470;11.004;2023-05-10T11:29:19;19.60;57.80
6824;DHT22;58633;49.470;11.004;2023-05-10T11:31:45;19.50;57.60
6824;DHT22;58633;49.470;11.004;2023-05-10T11:34:22;19.40;57.50
6824;DHT22;58633;49.470;11.004;2023-05-10T11:36:51;19.30;57.60
6824;DHT22;58633;49.470;11.004;2023-05-10T11:39:19;19.20;57.60
6824;DHT22;58633;49.470;11.004;2023-05-10T11:41:48;19.20;58.10
6824;DHT22;58633;49.470;11.004;2023-05-10T11:44:14;19.10;57.40
6824;DHT22;58633;49.470;11.004;2023-05-10T11:46:39;18.90;57.50
6824;DHT22;58633;49.470;11.004;2023-05-10T11:49:07;19.30;58.00
6824;DHT22;58633;49.470;11.004;2023-05-10T11:51:36;19.40;57.80
6824;DHT22;58633;49.470;11.004;2023-05-10T11:54:06;19.00;57.40
6824;DHT22;58633;49.470;11.004;2023-05-10T11:58:59;19.40;58.20
6824;DHT22;58633;49.470;11.004;2023-05-10T12:01:27;19.00;57.30
6824;DHT22;58633;49.470;11.004;2023-05-10T12:03:55;18.90;57.40
6824;DHT22;58633;49.470;11.004;2023-05-10T12:06:28;18.90;57.70
6824;DHT22;58633;49.470;11.004;2023-05-10T12:08:54;18.90;58.10
6824;DHT22;58633;49.470;11.004;2023-05-10T12:11:20;18.90;57.50
6824;DHT22;58633;49.470;11.004;2023-05-10T12:13:49;18.90;58.00
6824;DHT22;58633;49.470;11.004;2023-05-10T12:16:17;19.10;57.50
6824;DHT22;58633;49.470;11.004;2023-05-10T12:21:12;19.30;57.30
6824;DHT22;58633;49.470;11.004;2023-05-10T12:23:38;19.40;57.30
6824;DHT22;58633;49.470;11.004;2023-05-10T12:26:05;19.70;57.30
6824;DHT22;58633;49.470;11.004;2023-05-10T12:28:31;20.00;57.00
6824;DHT22;58633;49.470;11.004;2023-05-10T12:30:58;19.90;57.40
6824;DHT22;58633;49.470;11.004;2023-05-10T12:33:24;20.10;56.70
6824;DHT22;58633;49.470;11.004;2023-05-10T12:35:53;20.00;57.00
6824;DHT22;58633;49.470;11.004;2023-05-10T12:40:57;19.70;56.60
6824;DHT22;58633;49.470;11.004;2023-05-10T12:43:22;19.50;56.70
6824;DHT22;58633;49.470;11.004;2023-05-10T12:45:48;19.60;56.20
6824;DHT22;58633;49.470;11.004;2023-05-10T12:48:15;19.60;56.30
6824;DHT22;58633;49.470;11.004;2023-05-10T12:50:40;20.00;56.20
6824;DHT22;58633;49.470;11.004;2023-05-10T12:53:06;19.80;56.10
6824;DHT22;58633;49.470;11.004;2023-05-10T12:55:31;20.40;54.90
6824;DHT22;58633;49.470;11.004;2023-05-10T12:57:57;20.60;54.80
6824;DHT22;58633;49.470;11.004;2023-05-10T13:00:22;20.60;55.20
6824;DHT22;58633;49.470;11.004;2023-05-10T13:02:48;20.70;54.80
6824;DHT22;58633;49.470;11.004;2023-05-10T13:05:14;20.50;55.20
6824;DHT22;58633;49.470;11.004;2023-05-10T13:07:39;20.40;56.30
6824;DHT22;58633;49.470;11.004;2023-05-10T13:10:06;20.00;57.10
6824;DHT22;58633;49.470;11.004;2023-05-10T13:12:32;20.30;58.10
6824;DHT22;58633;49.470;11.004;2023-05-10T13:14:58;20.20;58.60
6824;DHT22;58633;49.470;11.004;2023-05-10T13:17:25;20.80;58.00
6824;DHT22;58633;49.470;11.004;2023-05-10T13:19:51;20.50;59.00
6824;DHT22;58633;49.470;11.004;2023-05-10T13:22:16;20.40;60.10
6824;DHT22;58633;49.470;11.004;2023-05-10T13:24:42;20.40;60.70
6824;DHT22;58633;49.470;11.004;2023-05-10T13:27:08;20.10;60.70
6824;DHT22;58633;49.470;11.004;2023-05-10T13:29:33;20.20;61.80
6824;DHT22;58633;49.470;11.004;2023-05-10T13:31:59;20.00;61.10
6824;DHT22;58633;49.470;11.004;2023-05-10T13:34:25;20.20;61.20
6824;DHT22;58633;49.470;11.004;2023-05-10T13:36:50;19.90;61.40
6824;DHT22;58633;49.470;11.004;2023-05-10T13:39:16;20.10;61.70
6824;DHT22;58633;49.470;11.004;2023-05-10T13:41:42;20.40;61.80
6824;DHT22;58633;49.470;11.004;2023-05-10T13:44:07;20.50;62.30
6824;DHT22;58633;49.470;11.004;2023-05-10T13:46:33;20.70;60.50
6824;DHT22;58633;49.470;11.004;2023-05-10T13:48:58;20.50;59.60
6824;DHT22;58633;49.470;11.004;2023-05-10T13:51:24;20.60;59.00
6824;DHT22;58633;49.470;11.004;2023-05-10T13:53:50;20.60;58.70
6824;DHT22;58633;49.470;11.004;2023-05-10T13:56:15;20.40;57.20
6824;DHT22;58633;49.470;11.004;2023-05-10T13:58:41;20.70;57.10
6824;DHT22;58633;49.470;11.004;2023-05-10T14:01:06;20.70;56.80
6824;DHT22;58633;49.470;11.004;2023-05-10T14:05:58;20.50;55.50
6824;DHT22;58633;49.470;11.004;2023-05-10T14:08:23;20.20;55.40
6824;DHT22;58633;49.470;11.004;2023-05-10T14:10:49;20.20;55.80
6824;DHT22;58633;49.470;11.004;2023-05-10T14:13:15;20.00;55.60
6824;DHT22;58633;49.470;11.004;2023-05-10T14:15:41;19.90;55.80
6824;DHT22;58633;49.470;11.004;2023-05-10T14:18:07;19.80;56.10
6824;DHT22;58633;49.470;11.004;2023-05-10T14:20:32;19.70;56.30
6824;DHT22;58633;49.470;11.004;2023-05-10T14:22:59;19.80;56.50
6824;DHT22;58633;49.470;11.004;2023-05-10T14:25:25;19.90;56.20
6824;DHT22;58633;49.470;11.004;2023-05-10T14:27:50;19.90;56.20
6824;DHT22;58633;49.470;11.004;2023-05-10T14:30:16;19.90;56.30
6824;DHT22;58633;49.470;11.004;2023-05-10T14:32:42;20.00;56.10
6824;DHT22;58633;49.470;11.004;2023-05-10T14:35:07;19.90;56.10
6824;DHT22;58633;49.470;11.004;2023-05-10T14:37:33;19.90;56.10
6824;DHT22;58633;49.470;11.004;2023-05-10T14:39:58;19.80;56.00
6824;DHT22;58633;49.470;11.004;2023-05-10T14:42:24;19.90;56.30
6824;DHT22;58633;49.470;11.004;2023-05-10T14:44:49;19.90;56.20
6824;DHT22;58633;49.470;11.004;2023-05-10T14:47:15;20.10;56.10
6824;DHT22;58633;49.470;11.004;2023-05-10T14:49:41;20.00;55.60
6824;DHT22;58633;49.470;11.004;2023-05-10T14:52:06;20.40;56.20
6824;DHT22;58633;49.470;11.004;2023-05-10T14:54:32;20.60;56.00
6824;DHT22;58633;49.470;11.004;2023-05-10T14:57:01;21.00;55.90
6824;DHT22;58633;49.470;11.004;2023-05-10T14:59:26;21.30;55.60
6824;DHT22;58633;49.470;11.004;2023-05-10T15:01:52;20.70;54.70
6824;DHT22;58633;49.470;11.004;2023-05-10T15:04:17;20.70;55.10
6824;DHT22;58633;49.470;11.004;2023-05-10T15:06:43;20.10;55.00
6824;DHT22;58633;49.470;11.004;2023-05-10T15:09:08;21.80;56.90
6824;DHT22;58633;49.470;11.004;2023-05-10T15:11:34;19.20;55.10
6824;DHT22;58633;49.470;11.004;2023-05-10T15:14:00;19.20;55.60
6824;DHT22;58633;49.470;11.004;2023-05-10T15:16:26;19.00;55.20
6824;DHT22;58633;49.470;11.004;2023-05-10T15:18:52;18.80;55.20
6824;DHT22;58633;49.470;11.004;2023-05-10T15:21:17;18.80;55.30
6824;DHT22;58633;49.470;11.004;2023-05-10T15:23:43;18.70;55.40
6824;DHT22;58633;49.470;11.004;2023-05-10T15:26:08;19.00;55.50
6824;DHT22;58633;49.470;11.004;2023-05-10T15:28:34;18.90;55.00
6824;DHT22;58633;49.470;11.004;2023-05-10T15:31:00;18.70;54.60
6824;DHT22;58633;49.470;11.004;2023-05-10T15:33:25;18.70;54.80
6824;DHT22;58633;49.470;11.004;2023-05-10T15:35:52;18.60;54.50
6824;DHT22;58633;49.470;11.004;2023-05-10T15:38:19;18.50;54.60
6824;DHT22;58633;49.470;11.004;2023-05-10T15:40:44;18.40;54.60
6824;DHT22;58633;49.470;11.004;2023-05-10T15:43:10;18.50;54.60
6824;DHT22;58633;49.470;11.004;2023-05-10T15:45:35;18.30;54.50
6824;DHT22;58633;49.470;11.004;2023-05-10T15:48:00;18.50;54.90
6824;DHT22;58633;49.470;11.004;2023-05-10T15:50:26;18.20;54.40
6824;DHT22;58633;49.470;11.004;2023-05-10T15:52:52;18.40;54.70
6824;DHT22;58633;49.470;11.004;2023-05-10T15:55:18;18.20;54.40
6824;DHT22;58633;49.470;11.004;2023-05-10T15:57:44;18.10;54.70
6824;DHT22;58633;49.470;11.004;2023-05-10T16:00:11;18.10;55.10
6824;DHT22;58633;49.470;11.004;2023-05-10T16:02:40;18.00;55.50
6824;DHT22;58633;49.470;11.004;2023-05-10T16:05:06;18.10;55.70
6824;DHT22;58633;49.470;11.004;2023-05-10T16:07:32;18.20;56.10
6824;DHT22;58633;49.470;11.004;2023-05-10T16:09:58;18.30;56.60
6824;DHT22;58633;49.470;11.004;2023-05-10T16:12:24;18.20;56.70
6824;DHT22;58633;49.470;11.004;2023-05-10T16:14:49;18.20;56.80
6824;DHT22;58633;49.470;11.004;2023-05-10T16:17:15;18.10;56.80
6824;DHT22;58633;49.470;11.004;2023-05-10T16:22:06;17.80;56.90
6824;DHT22;58633;49.470;11.004;2023-05-10T16:24:32;18.00;57.10
6824;DHT22;58633;49.470;11.004;2023-05-10T16:26:57;17.70;57.60
6824;DHT22;58633;49.470;11.004;2023-05-10T16:29:23;17.70;58.00
6824;DHT22;58633;49.470;11.004;2023-05-10T16:31:49;17.70;58.40
6824;DHT22;58633;49.470;11.004;2023-05-10T16:34:14;17.70;58.50
6824;DHT22;58633;49.470;11.004;2023-05-10T16:36:40;17.50;58.90
6824;DHT22;58633;49.470;11.004;2023-05-10T16:39:06;17.10;58.80
6824;DHT22;58633;49.470;11.004;2023-05-10T16:41:33;17.50;59.50
6824;DHT22;58633;49.470;11.004;2023-05-10T16:43:59;17.30;59.50
6824;DHT22;58633;49.470;11.004;2023-05-10T16:46:25;17.40;60.10
6824;DHT22;58633;49.470;11.004;2023-05-10T16:48:51;17.30;59.60
6824;DHT22;58633;49.470;11.004;2023-05-10T16:51:17;17.30;59.80